Time;durP1;ratioP1;P1;durP2;ratioP2;P2;SDS_P1;SDS_P2;PMS_P1;PMS_P2;Temp;Humidity;BMP_temperature;BMP_pressure;BME280_temperature;BME280_humidity;BME280_pressure;Samples;Min_cycle;Max_cycle;Signal;HPM_P1;HPM_P2
2023/03/27 00:01:17;;;;;;;4.50;3.00;;;;;;;6.01;79.68;98459.17;105771;1253;60597;-71
2023/03/27 00:03:52;;;;;;;;;;;;;;;5.92;79.86;98456.55;105465;1253;60449;-69
2023/03/27 00:06:19;;;;;;;4.40;3.10;;;;;;;5.88;79.92;98454.91;105982;1258;74813;-72
2023/03/27 00:08:47;;;;;;;3.50;2.80;;;;;;;5.93;79.94;98449.48;105525;1253;70591;-68
2023/03/27 00:11:15;;;;;;;4.00;2.90;;;;;;;5.91;80.04;98448.22;105326;1254;72357;-69
2023/03/27 00:13:43;;;;;;;4.70;3.60;;;;;;;5.84;80.23;98448.80;106253;1253;61876;-69
2023/03/27 00:16:21;;;;;;;;;;;;;;;5.79;80.29;98444.89;105507;1253;60330;-69
2023/03/27 00:18:48;;;;;;;5.50;3.70;;;;;;;5.76;80.46;98440.83;105440;1258;74871;-71
2023/03/27 00:21:18;;;;;;;4.30;3.40;;;;;;;5.80;80.48;98444.07;105545;1256;68154;-72
2023/03/27 00:23:48;;;;;;;4.20;3.00;;;;;;;5.80;80.61;98447.03;105583;1253;72198;-71
2023/03/27 00:26:15;;;;;;;5.40;3.60;;;;;;;5.75;80.86;98447.91;105567;1257;60509;-70
2023/03/27 00:28:46;;;;;;;4.40;3.20;;;;;;;5.71;80.85;98446.44;105770;1256;60370;-70
2023/03/27 00:31:14;;;;;;;5.20;3.20;;;;;;;5.76;80.78;98444.08;105704;1253;73209;-72
2023/03/27 00:33:41;;;;;;;4.50;3.20;;;;;;;5.79;80.90;98446.09;105913;1257;70975;-71
2023/03/27 00:36:09;;;;;;;4.80;3.20;;;;;;;5.74;80.69;98445.37;105755;1255;72717;-71
2023/03/27 00:38:35;;;;;;;5.40;3.30;;;;;;;5.68;81.12;98447.09;105609;1253;61277;-68
2023/03/27 00:41:03;;;;;;;3.50;3.00;;;;;;;5.63;81.00;98443.19;105800;1253;60436;-73
2023/03/27 00:43:35;;;;;;;4.00;3.00;;;;;;;5.70;80.99;98445.45;105578;1256;74804;-70
2023/03/27 00:46:13;;;;;;;4.90;3.10;;;;;;;5.74;80.79;98446.10;105757;1253;71395;-69
2023/03/27 00:48:40;;;;;;;5.70;3.90;;;;;;;5.67;81.04;98451.35;105711;1253;71052;-73
2023/03/27 00:51:08;;;;;;;4.30;3.10;;;;;;;5.60;81.26;98450.23;105505;1254;60459;-71
2023/03/27 00:53:36;;;;;;;5.10;2.70;;;;;;;5.57;81.47;98454.44;105887;1253;61486;-70
2023/03/27 00:56:04;;;;;;;4.40;3.50;;;;;;;5.62;81.55;98453.77;105606;1253;74233;-72
2023/03/27 00:58:50;;;;;;;4.40;3.40;;;;;;;5.59;81.47;98453.23;105370;1259;69803;-73
2023/03/27 01:01:18;;;;;;;6.10;3.50;;;;;;;5.52;81.67;98456.88;105484;1258;71966;-72
2023/03/27 01:03:46;;;;;;;4.70;3.40;;;;;;;5.47;81.77;98457.45;106077;1259;60507;-70
2023/03/27 01:06:15;;;;;;;5.00;3.20;;;;;;;5.51;81.93;98453.35;105887;1256;60493;-74
2023/03/27 01:08:44;;;;;;;5.80;2.90;;;;;;;5.52;81.69;98450.99;105675;1256;72801;-73
2023/03/27 01:11:26;;;;;;;5.60;3.50;;;;;;;5.45;81.93;98450.63;105683;1257;69463;-73
2023/03/27 01:14:02;;;;;;;4.10;2.80;;;;;;;5.37;82.13;98455.36;105664;1256;73628;-72
2023/03/27 01:16:44;;;;;;;4.50;3.30;;;;;;;5.32;82.46;98461.15;105756;1254;60536;-73
2023/03/27 01:19:28;;;;;;;4.60;3.40;;;;;;;5.38;82.33;98459.30;105729;1253;60773;-71
2023/03/27 01:22:23;;;;;;;4.90;3.40;;;;;;;5.34;82.46;98456.20;105894;1257;75244;-72
2023/03/27 01:25:41;;;;;;;6.20;3.50;;;;;;;5.25;82.55;98454.24;105923;1253;69262;-73
2023/03/27 01:31:53;;;;;;;5.00;3.70;;;;;;;5.27;82.71;98446.80;102607;1292;601632;-71
2023/03/27 01:34:27;;;;;;;4.20;3.70;;;;;;;5.17;82.80;98450.85;105589;1256;60752;-70
2023/03/27 01:37:16;;;;;;;4.40;3.20;;;;;;;5.14;83.15;98448.67;105437;1259;61257;-73
2023/03/27 01:39:55;;;;;;;3.60;3.10;;;;;;;5.20;83.12;98445.09;105749;1259;73422;-71
2023/03/27 01:42:26;;;;;;;5.90;3.70;;;;;;;5.19;82.99;98447.84;105725;1254;70837;-72
2023/03/27 01:44:58;;;;;;;4.50;3.50;;;;;;;5.12;82.97;98449.79;105715;1253;170728;-73
2023/03/27 01:47:40;;;;;;;5.20;3.60;;;;;;;5.05;83.30;98447.40;105747;1253;62000;-69
2023/03/27 01:50:37;;;;;;;4.60;3.10;;;;;;;5.11;83.31;98452.23;106110;1254;60541;-73
2023/03/27 01:53:18;;;;;;;4.40;3.50;;;;;;;5.10;83.40;98444.44;105718;1260;71537;-72
2023/03/27 01:55:47;;;;;;;4.70;3.30;;;;;;;5.03;83.38;98440.77;106045;1257;69290;-71
2023/03/27 01:58:32;;;;;;;4.00;3.50;;;;;;;4.98;83.48;98442.73;105932;1254;73256;-71
2023/03/27 02:01:00;;;;;;;4.10;2.70;;;;;;;5.03;83.51;98439.73;105786;1256;61606;-72
2023/03/27 02:03:34;;;;;;;3.90;3.10;;;;;;;5.07;83.38;98439.14;105731;1262;60079;-71
2023/03/27 02:06:10;;;;;;;4.20;3.20;;;;;;;5.02;83.34;98432.30;105637;1260;72500;-71
2023/03/27 02:08:49;;;;;;;5.70;3.50;;;;;;;4.95;83.74;98430.27;105753;1260;70416;-71
2023/03/27 02:11:21;;;;;;;4.20;3.50;;;;;;;4.91;83.62;98436.94;105867;1254;73904;-71
2023/03/27 02:13:51;;;;;;;4.20;3.30;;;;;;;4.99;83.40;98445.07;105688;1254;60981;-72
2023/03/27 02:16:24;;;;;;;4.00;3.10;;;;;;;5.05;83.35;98450.02;105770;1253;59960;-72
2023/03/27 02:18:57;;;;;;;3.70;3.10;;;;;;;5.02;83.62;98452.14;105590;1257;73079;-71
2023/03/27 02:21:25;;;;;;;;;;;;;;;4.94;83.35;98449.80;105814;1253;69688;-72
2023/03/27 02:23:52;;;;;;;4.40;3.10;;;;;;;4.87;83.53;98451.86;105813;1260;71900;-72
2023/03/27 02:26:19;;;;;;;5.80;3.10;;;;;;;4.90;83.61;98452.70;105677;1257;59631;-70
2023/03/27 02:29:11;;;;;;;5.00;2.90;;;;;;;4.92;83.56;98457.36;105857;1253;60651;-69
2023/03/27 02:32:06;;;;;;;5.40;3.60;;;;;;;4.84;83.78;98461.66;105775;1258;73697;-73
2023/03/27 02:34:49;;;;;;;4.60;3.20;;;;;;;4.78;83.97;98456.06;105954;1254;70578;-74
2023/03/27 02:37:38;;;;;;;4.50;3.20;;;;;;;4.78;84.21;98457.31;105887;1253;70720;-74
2023/03/27 02:40:35;;;;;;;3.80;3.10;;;;;;;4.85;83.80;98463.75;106372;1254;60289;-76
2023/03/27 02:44:04;;;;;;;5.60;3.30;;;;;;;4.79;84.14;98469.28;107631;1254;61428;-76
2023/03/27 02:47:39;;;;;;;3.80;3.30;;;;;;;4.78;84.18;98469.77;107990;1254;73493;-72
2023/03/27 02:50:10;;;;;;;7.00;3.90;;;;;;;4.84;84.07;98480.88;107460;1259;68996;-76
2023/03/27 02:52:44;;;;;;;6.10;3.90;;;;;;;4.78;84.32;98489.58;108173;1253;72642;-73
2023/03/27 02:55:15;;;;;;;6.70;3.70;;;;;;;4.72;84.35;98497.16;108265;1255;59989;-77
2023/03/27 02:57:42;;;;;;;5.40;4.00;;;;;;;4.74;84.44;98502.76;106107;1254;60816;-76
2023/03/27 03:00:29;;;;;;;4.80;3.90;;;;;;;4.78;84.29;98507.09;106025;1254;73068;-76
2023/03/27 03:03:12;;;;;;;5.50;4.40;;;;;;;4.71;84.36;98508.04;106011;1254;71778;-76
2023/03/27 03:05:40;;;;;;;5.00;3.50;;;;;;;4.63;84.44;98514.06;105860;1254;71774;-74
2023/03/27 03:08:09;;;;;;;6.10;3.60;;;;;;;4.66;84.66;98519.44;106155;1252;62167;-75
2023/03/27 03:10:42;;;;;;;5.80;3.80;;;;;;;4.69;84.64;98518.73;106005;1254;60524;-77
2023/03/27 03:13:14;;;;;;;8.30;3.50;;;;;;;4.63;84.84;98522.55;106014;1254;74070;-76
2023/03/27 03:15:44;;;;;;;5.00;3.70;;;;;;;4.54;84.93;98521.31;106174;1254;69775;-76
2023/03/27 03:18:11;;;;;;;4.00;2.90;;;;;;;4.50;85.26;98518.08;106065;1254;72956;-75
2023/03/27 03:20:38;;;;;;;4.80;3.30;;;;;;;4.56;85.12;98517.97;105975;1254;60584;-76
2023/03/27 03:23:05;;;;;;;5.80;3.40;;;;;;;4.55;85.12;98518.16;106065;1253;59918;-76
2023/03/27 03:25:33;;;;;;;5.20;3.80;;;;;;;4.47;85.51;98519.05;106214;1257;71489;-77
2023/03/27 03:28:00;;;;;;;4.30;3.00;;;;;;;4.45;85.53;98518.59;107157;1254;70497;-75
2023/03/27 03:30:29;;;;;;;4.80;3.50;;;;;;;4.52;85.33;98519.07;106552;1254;72991;-78
2023/03/27 03:33:18;;;;;;;5.00;3.40;;;;;;;4.52;85.41;98516.66;106113;1254;61656;-78
2023/03/27 03:35:47;;;;;;;4.60;3.50;;;;;;;4.47;85.51;98514.36;105827;1259;61748;-76
2023/03/27 03:38:24;;;;;;;4.30;2.80;;;;;;;4.48;85.33;98513.73;106161;1254;72307;-73
2023/03/27 03:40:52;;;;;;;4.80;2.80;;;;;;;4.58;85.21;98517.27;105925;1257;69843;-75
2023/03/27 03:43:21;;;;;;;5.00;3.00;;;;;;;4.60;85.09;98517.39;107723;1253;71377;-75
2023/03/27 03:45:53;;;;;;;5.40;3.50;;;;;;;4.58;85.21;98514.95;107988;1254;60563;-76
2023/03/27 03:48:21;;;;;;;5.30;3.80;;;;;;;4.57;85.13;98516.00;106492;1254;61546;-76
2023/03/27 03:50:50;;;;;;;4.70;3.60;;;;;;;4.59;85.22;98516.28;106498;1252;72806;-75
2023/03/27 03:53:18;;;;;;;5.60;3.50;;;;;;;4.72;84.87;98515.84;109327;1254;70261;-75
2023/03/27 03:55:48;;;;;;;7.00;3.40;;;;;;;4.75;84.74;98517.13;109389;1254;72641;-76
2023/03/27 03:58:16;;;;;;;5.40;3.60;;;;;;;4.72;84.59;98517.73;108726;1252;59461;-75
2023/03/27 04:00:47;;;;;;;4.20;3.50;;;;;;;4.70;84.60;98517.22;109195;1254;60078;-75
2023/03/27 04:03:37;;;;;;;4.70;3.50;;;;;;;4.80;84.56;98524.61;109573;1252;72161;-74
2023/03/27 04:06:06;;;;;;;4.50;3.10;;;;;;;4.88;84.35;98527.29;109546;1254;69359;-76
2023/03/27 04:08:33;;;;;;;4.90;3.00;;;;;;;4.86;84.22;98525.86;109435;1254;71686;-76
2023/03/27 04:11:08;;;;;;;5.00;3.80;;;;;;;4.87;84.42;98529.66;109675;1253;60143;-76
2023/03/27 04:14:01;;;;;;;6.00;3.40;;;;;;;4.89;84.24;98536.60;109478;1253;59341;-76
2023/03/27 04:16:38;;;;;;;5.10;2.90;;;;;;;5.03;83.61;98529.42;109621;1253;73087;-75
2023/03/27 04:19:17;;;;;;;4.20;3.20;;;;;;;5.11;83.50;98536.66;109383;1253;70184;-75
2023/03/27 04:21:46;;;;;;;5.30;3.50;;;;;;;5.12;83.37;98534.73;109480;1252;72493;-78
2023/03/27 04:24:17;;;;;;;3.70;3.10;;;;;;;5.13;83.52;98535.73;109403;1253;58168;-77
2023/03/27 04:26:46;;;;;;;4.40;2.60;;;;;;;5.16;83.14;98532.74;109581;1253;60169;-77
2023/03/27 04:29:30;;;;;;;3.90;3.30;;;;;;;5.28;82.92;98531.34;109635;1254;71251;-78
2023/03/27 04:31:57;;;;;;;4.40;3.00;;;;;;;5.32;82.79;98533.16;109653;1252;69144;-78
2023/03/27 04:34:40;;;;;;;6.60;3.00;;;;;;;5.32;82.64;98533.63;109739;1253;72593;-78
2023/03/27 04:37:27;;;;;;;4.90;3.30;;;;;;;5.34;82.47;98533.80;109583;1253;59101;-78
2023/03/27 04:40:03;;;;;;;6.30;3.90;;;;;;;5.45;82.25;98528.40;109464;1253;60293;-78
2023/03/27 04:42:32;;;;;;;5.30;3.50;;;;;;;5.57;81.92;98533.27;109583;1253;72928;-79
2023/03/27 04:45:00;;;;;;;6.40;4.00;;;;;;;5.59;81.75;98535.23;109411;1254;70188;-76
2023/03/27 04:47:28;;;;;;;5.50;3.30;;;;;;;5.60;81.62;98533.30;109440;1254;71699;-74
2023/03/27 04:49:58;;;;;;;6.70;3.40;;;;;;;5.63;81.38;98538.20;109370;1253;60213;-75
2023/03/27 04:52:28;;;;;;;7.50;3.60;;;;;;;5.77;81.08;98539.05;109476;1253;59536;-74
2023/03/27 04:55:04;;;;;;;4.40;3.30;;;;;;;5.84;80.75;98535.69;109489;1254;73004;-76
2023/03/27 04:57:31;;;;;;;6.20;4.00;;;;;;;5.83;80.49;98538.71;109563;1251;69395;-78
2023/03/27 05:00:00;;;;;;;6.60;4.10;;;;;;;5.82;80.26;98541.77;109205;1253;70617;-79
2023/03/27 05:02:36;;;;;;;7.20;3.70;;;;;;;5.83;80.40;98551.03;108350;1253;62042;-79
2023/03/27 05:05:12;;;;;;;5.70;3.70;;;;;;;5.96;80.16;98555.08;108992;1253;59272;-78
2023/03/27 05:07:45;;;;;;;4.70;3.30;;;;;;;6.02;79.83;98554.63;108484;1253;71401;-79
2023/03/27 05:10:16;;;;;;;4.80;3.00;;;;;;;6.05;79.96;98552.88;107953;1254;69938;-78
2023/03/27 05:12:50;;;;;;;5.50;3.30;;;;;;;6.09;79.59;98560.35;108991;1253;70359;-80
2023/03/27 05:15:17;;;;;;;3.70;3.40;;;;;;;6.18;79.17;98559.80;109275;1254;59217;-77
2023/03/27 05:17:53;;;;;;;8.60;4.50;;;;;;;6.32;78.57;98557.15;109300;1254;59990;-79
2023/03/27 05:20:26;;;;;;;6.10;3.90;;;;;;;6.37;78.50;98554.51;109421;1252;71455;-74
2023/03/27 05:22:54;;;;;;;6.00;4.20;;;;;;;6.42;78.18;98553.96;109459;1253;68543;-76
2023/03/27 05:25:25;;;;;;;4.80;3.60;;;;;;;6.45;77.79;98555.20;109223;1253;72674;-75
2023/03/27 05:27:54;;;;;;;5.70;4.60;;;;;;;6.53;77.92;98555.34;109324;1253;61342;-76
2023/03/27 05:30:23;;;;;;;6.90;4.40;;;;;;;6.70;77.77;98553.77;108133;1254;59538;-78
2023/03/27 05:33:00;;;;;;;8.70;6.50;;;;;;;6.79;77.20;98554.61;108367;1254;73176;-78
2023/03/27 05:35:28;;;;;;;7.40;5.70;;;;;;;6.83;77.06;98555.48;108708;1254;69728;-80
2023/03/27 05:37:57;;;;;;;9.10;5.30;;;;;;;6.90;77.32;98556.15;107878;1254;72863;-78
2023/03/27 05:40:39;;;;;;;5.00;3.50;;;;;;;6.98;77.03;98558.30;107560;1251;60975;-78
2023/03/27 05:43:07;;;;;;;4.10;3.20;;;;;;;7.10;76.66;98557.75;107584;1251;60373;-79
2023/03/27 05:45:35;;;;;;;6.70;3.80;;;;;;;7.31;76.14;98551.70;107396;1257;74081;-78
2023/03/27 05:48:03;;;;;;;5.20;3.80;;;;;;;7.42;75.83;98555.68;107644;1253;71584;-81
2023/03/27 05:50:34;;;;;;;4.50;3.10;;;;;;;7.49;75.49;98552.23;107465;1254;72881;-78
2023/03/27 05:53:08;;;;;;;5.30;3.30;;;;;;;7.53;74.82;98552.25;107659;1252;60411;-81
2023/03/27 05:55:37;;;;;;;4.30;3.60;;;;;;;7.56;74.40;98550.59;107450;1254;60799;-80
2023/03/27 05:58:12;;;;;;;6.90;4.00;;;;;;;7.58;74.32;98552.41;108371;1251;72867;-80
2023/03/27 06:00:43;;;;;;;6.90;4.40;;;;;;;7.61;73.92;98552.75;107415;1251;68950;-78
2023/03/27 06:03:13;;;;;;;7.00;3.70;;;;;;;7.73;73.59;98556.56;106091;1259;71787;-79
2023/03/27 06:05:53;;;;;;;7.80;5.30;;;;;;;7.78;73.48;98556.41;106098;1251;60532;-79
2023/03/27 06:08:21;;;;;;;9.70;6.30;;;;;;;7.80;73.50;98561.13;106194;1252;61200;-79
2023/03/27 06:10:49;;;;;;;10.30;6.20;;;;;;;7.80;73.43;98561.13;106187;1256;75068;-79
2023/03/27 06:13:31;;;;;;;7.60;5.30;;;;;;;7.85;73.88;98564.64;106053;1251;71413;-79
2023/03/27 06:16:06;;;;;;;8.90;6.50;;;;;;;7.92;73.54;98566.45;106214;1254;72694;-76
2023/03/27 06:18:50;;;;;;;8.60;6.70;;;;;;;7.97;73.34;98564.99;105829;1254;60922;-77
2023/03/27 06:21:21;;;;;;;8.30;5.50;;;;;;;8.06;73.18;98561.11;105742;1259;61390;-79
2023/03/27 06:23:57;;;;;;;10.30;6.60;;;;;;;8.23;72.71;98561.06;105790;1259;73249;-76
2023/03/27 06:26:27;;;;;;;8.30;4.90;;;;;;;8.30;72.51;98562.55;105959;1254;71404;-78
2023/03/27 06:28:55;;;;;;;11.00;5.50;;;;;;;8.36;71.87;98559.56;106087;1258;73626;-77
2023/03/27 06:31:23;;;;;;;7.30;4.40;;;;;;;8.41;71.43;98563.49;106134;1252;60438;-75
2023/03/27 06:34:04;;;;;;;9.20;4.90;;;;;;;8.44;71.18;98561.88;106145;1252;60597;-78
2023/03/27 06:36:40;;;;;;;10.10;5.50;;;;;;;8.52;71.77;98561.96;106057;1256;75061;-76
2023/03/27 06:39:16;;;;;;;8.30;5.60;;;;;;;8.61;71.48;98561.73;106033;1254;71195;-75
2023/03/27 06:41:49;;;;;;;8.00;5.10;;;;;;;8.73;71.23;98561.55;105967;1253;73707;-75
2023/03/27 06:44:28;;;;;;;5.60;3.60;;;;;;;8.82;71.20;98564.31;106075;1252;61152;-74
2023/03/27 06:47:04;;;;;;;5.20;3.30;;;;;;;8.91;70.03;98563.02;105939;1257;61590;-73
2023/03/27 06:49:39;;;;;;;7.20;4.50;;;;;;;8.97;69.41;98560.20;106185;1251;75026;-75
2023/03/27 06:52:13;;;;;;;6.90;4.50;;;;;;;9.00;69.59;98558.69;106061;1254;68527;-75
2023/03/27 06:54:45;;;;;;;6.50;5.40;;;;;;;9.07;69.64;98557.38;106184;1254;73269;-73
2023/03/27 06:57:14;;;;;;;7.60;5.20;;;;;;;9.17;69.45;98559.02;105900;1254;61182;-74
2023/03/27 07:00:09;;;;;;;8.60;4.80;;;;;;;9.29;69.57;98560.73;106066;1251;60434;-76
2023/03/27 07:03:02;;;;;;;6.50;4.40;;;;;;;9.43;68.99;98562.84;105803;1251;75133;-76
2023/03/27 07:05:59;;;;;;;7.90;4.80;;;;;;;9.59;68.01;98565.88;105523;1252;71659;-74
2023/03/27 07:08:33;;;;;;;;;;;;;;;9.72;67.25;98569.49;106030;1254;73326;-75
2023/03/27 07:11:02;;;;;;;5.70;3.50;;;;;;;9.79;66.97;98572.20;106026;1253;61628;-74
2023/03/27 07:13:32;;;;;;;7.70;3.60;;;;;;;9.81;65.89;98568.06;105968;1251;60494;-75
2023/03/27 07:16:01;;;;;;;5.40;3.90;;;;;;;9.87;66.13;98561.70;105977;1256;74844;-75
2023/03/27 07:18:34;;;;;;;7.60;3.50;;;;;;;9.96;65.67;98563.33;105771;1254;69459;-74
2023/03/27 07:21:01;;;;;;;3.90;2.70;;;;;;;10.04;65.07;98559.83;105848;1254;73991;-75
2023/03/27 07:23:28;;;;;;;6.10;3.40;;;;;;;10.13;65.08;98559.15;105749;1254;61042;-75
2023/03/27 07:26:01;;;;;;;;;;;;;;;10.23;64.55;98561.87;105617;1254;60512;-75
2023/03/27 07:28:50;;;;;;;5.70;3.50;;;;;;;10.33;64.44;98562.05;105735;1254;72290;-77
2023/03/27 07:31:19;;;;;;;6.30;3.90;;;;;;;10.43;64.57;98564.48;105921;1257;71097;-75
2023/03/27 07:34:07;;;;;;;10.00;4.50;;;;;;;10.54;63.88;98568.29;105890;1254;73623;-77
2023/03/27 07:36:56;;;;;;;6.90;4.10;;;;;;;10.60;63.33;98568.15;105950;1256;61137;-76
2023/03/27 07:39:24;;;;;;;6.80;3.40;;;;;;;10.65;63.12;98567.96;106012;1254;60446;-76
2023/03/27 07:41:51;;;;;;;4.30;2.90;;;;;;;10.69;61.91;98574.62;105944;1256;74647;-76
2023/03/27 07:44:46;;;;;;;7.70;3.10;;;;;;;10.73;62.16;98569.16;105982;1257;69181;-75
2023/03/27 07:47:13;;;;;;;6.00;3.30;;;;;;;10.76;62.59;98565.11;105866;1254;72614;-75
2023/03/27 07:49:40;;;;;;;6.50;3.80;;;;;;;10.88;62.73;98571.98;105873;1251;61532;-77
2023/03/27 07:52:12;;;;;;;8.50;4.30;;;;;;;11.02;62.11;98575.39;106000;1251;60380;-77
2023/03/27 07:54:48;;;;;;;5.90;4.20;;;;;;;11.12;61.93;98576.77;105817;1259;74893;-74
2023/03/27 07:57:16;;;;;;;4.10;3.00;;;;;;;11.16;61.18;98579.53;106012;1259;69412;-74
2023/03/27 07:59:51;;;;;;;;;;;;;;;11.17;60.87;98574.67;106089;1251;73003;-76
2023/03/27 08:02:24;;;;;;;6.70;3.60;;;;;;;11.17;61.33;98577.12;105947;1257;60421;-77
2023/03/27 08:04:53;;;;;;;7.10;3.70;;;;;;;11.20;61.31;98578.31;106036;1253;60319;-74
2023/03/27 08:07:23;;;;;;;6.60;3.80;;;;;;;11.21;61.27;98576.30;106449;1251;73076;-75
2023/03/27 08:09:56;;;;;;;6.90;4.00;;;;;;;11.20;61.62;98573.91;106559;1255;68282;-77
2023/03/27 08:12:23;;;;;;;7.10;3.40;;;;;;;11.21;62.12;98566.14;106099;1251;73787;-77
2023/03/27 08:14:55;;;;;;;4.30;3.10;;;;;;;11.30;62.28;98568.20;106341;1251;60704;-77
2023/03/27 08:17:29;;;;;;;6.60;3.30;;;;;;;11.42;61.92;98568.66;106197;1254;60533;-76
2023/03/27 08:19:57;;;;;;;4.90;3.30;;;;;;;11.56;61.42;98572.20;106243;1254;74802;-77
2023/03/27 08:22:24;;;;;;;6.10;3.50;;;;;;;11.67;60.94;98569.23;106090;1252;71323;-77
2023/03/27 08:25:09;;;;;;;5.50;3.50;;;;;;;11.72;61.37;98566.36;106055;1257;71827;-77
2023/03/27 08:27:39;;;;;;;9.20;4.20;;;;;;;11.76;60.24;98567.59;106020;1253;61166;-80
2023/03/27 08:30:06;;;;;;;7.70;4.00;;;;;;;11.80;60.65;98564.23;105898;1260;61344;-80
2023/03/27 08:32:38;;;;;;;5.60;3.30;;;;;;;11.92;61.13;98564.67;105886;1254;73063;-79
2023/03/27 08:35:13;;;;;;;6.40;3.10;;;;;;;12.04;60.09;98565.32;105962;1259;70374;-79
2023/03/27 08:37:42;;;;;;;5.50;3.50;;;;;;;12.14;59.14;98565.43;105906;1259;73724;-77
2023/03/27 08:40:50;;;;;;;6.40;3.90;;;;;;;12.25;58.82;98567.91;105680;1254;61245;-76
2023/03/27 08:43:41;;;;;;;4.70;3.40;;;;;;;12.34;58.87;98569.05;106155;1251;61647;-78
2023/03/27 08:46:29;;;;;;;4.50;2.80;;;;;;;12.40;58.07;98566.42;106221;1254;74903;-77
2023/03/27 08:49:19;;;;;;;4.50;2.50;;;;;;;12.42;57.87;98565.35;106001;1257;70408;-77
2023/03/27 08:52:24;;;;;;;4.40;2.60;;;;;;;12.49;57.14;98566.52;106276;1251;73555;-79
2023/03/27 08:55:48;;;;;;;4.20;2.70;;;;;;;12.55;57.63;98565.27;106469;1251;59460;-78
2023/03/27 08:58:28;;;;;;;4.00;2.20;;;;;;;12.73;57.03;98562.38;106043;1259;60566;-80
2023/03/27 09:01:25;;;;;;;3.80;2.50;;;;;;;12.83;56.43;98564.06;106230;1259;72859;-74
2023/03/27 09:04:27;;;;;;;4.80;2.50;;;;;;;12.92;55.20;98563.94;106405;1260;71840;-79
2023/03/27 09:07:15;;;;;;;5.20;2.90;;;;;;;12.98;56.55;98557.69;107171;1251;72404;-79
2023/03/27 09:10:20;;;;;;;5.40;3.40;;;;;;;13.19;56.19;98552.85;108023;1254;60351;-80
2023/03/27 09:13:12;;;;;;;4.10;3.10;;;;;;;13.50;54.65;98551.63;107356;1251;60258;-79
2023/03/27 09:15:52;;;;;;;5.30;3.80;;;;;;;13.78;54.01;98539.91;107404;1256;76648;-78
2023/03/27 09:18:53;;;;;;;6.80;3.30;;;;;;;14.17;53.22;98539.55;107087;1251;71282;-76
2023/03/27 09:21:30;;;;;;;7.70;3.30;;;;;;;14.87;51.82;98546.23;106335;1254;71651;-75
2023/03/27 09:24:06;;;;;;;4.10;3.20;;;;;;;15.51;50.56;98545.73;107189;1256;60454;-78
2023/03/27 09:26:52;;;;;;;5.10;3.10;;;;;;;15.99;48.61;98534.89;107144;1252;60856;-77
2023/03/27 09:30:19;;;;;;;6.70;3.40;;;;;;;16.36;47.81;98538.80;107100;1254;73179;-74
2023/03/27 09:32:57;;;;;;;3.40;2.70;;;;;;;16.94;48.92;98541.67;106796;1256;70569;-76
2023/03/27 09:35:25;;;;;;;3.70;2.80;;;;;;;17.58;45.75;98540.46;107102;1256;74505;-73
2023/03/27 09:38:02;;;;;;;4.00;2.90;;;;;;;17.99;45.55;98538.66;106633;1251;60329;-74
2023/03/27 09:40:35;;;;;;;4.10;3.20;;;;;;;18.32;44.27;98543.40;106702;1257;60466;-73
2023/03/27 09:43:11;;;;;;;4.00;2.40;;;;;;;18.58;43.61;98541.42;106696;1253;72656;-76
2023/03/27 09:45:40;;;;;;;3.50;2.50;;;;;;;18.81;42.90;98536.18;106611;1259;70226;-77
2023/03/27 09:48:43;;;;;;;5.00;3.00;;;;;;;19.05;43.19;98527.31;106565;1254;72606;-73
2023/03/27 09:51:41;;;;;;;5.30;3.10;;;;;;;19.27;42.39;98529.46;106605;1252;60482;-76
2023/03/27 09:54:17;;;;;;;3.60;3.00;;;;;;;19.21;41.79;98520.42;106927;1253;60517;-74
2023/03/27 09:56:48;;;;;;;4.00;3.40;;;;;;;19.13;41.90;98519.05;106679;1257;73803;-75
2023/03/27 09:59:22;;;;;;;3.90;3.10;;;;;;;18.98;42.22;98520.84;106492;1254;72662;-76
2023/03/27 10:01:54;;;;;;;6.50;5.10;;;;;;;19.07;42.06;98526.30;106690;1254;71598;-75
2023/03/27 10:04:23;;;;;;;4.30;3.60;;;;;;;19.28;42.47;98515.64;106535;1260;60419;-77
2023/03/27 10:07:07;;;;;;;3.80;2.80;;;;;;;19.73;41.39;98522.34;106339;1251;60331;-75
2023/03/27 10:10:10;;;;;;;5.30;2.70;;;;;;;20.10;40.73;98512.65;105880;1251;75070;-73
2023/03/27 10:13:15;;;;;;;3.00;2.10;;;;;;;20.23;39.02;98513.04;105926;1255;71302;-77
2023/03/27 10:15:46;;;;;;;2.90;2.20;;;;;;;20.22;39.18;98513.48;105892;1258;73530;-75
2023/03/27 10:18:28;;;;;;;4.70;2.40;;;;;;;20.08;39.33;98510.80;105936;1254;60469;-74
2023/03/27 10:21:08;;;;;;;3.20;2.10;;;;;;;19.77;39.30;98511.27;105982;1252;60536;-75
2023/03/27 10:24:06;;;;;;;2.80;2.00;;;;;;;19.44;39.47;98518.75;106044;1255;75076;-76
2023/03/27 10:26:57;;;;;;;3.00;2.30;;;;;;;19.30;40.43;98507.58;106044;1254;71656;-73
2023/03/27 10:29:29;;;;;;;2.80;2.30;;;;;;;19.42;39.58;98513.20;106087;1265;73849;-74
2023/03/27 10:31:58;;;;;;;2.00;1.80;;;;;;;19.40;38.06;98504.83;105859;1259;60279;-74
2023/03/27 10:34:42;;;;;;;5.70;2.10;;;;;;;19.16;38.54;98510.20;106011;1254;61111;-76
2023/03/27 10:37:26;;;;;;;2.60;2.30;;;;;;;18.83;39.58;98515.22;105942;1262;75350;-75
2023/03/27 10:40:08;;;;;;;5.00;2.10;;;;;;;18.34;40.43;98515.78;105993;1254;69911;-74
2023/03/27 10:42:39;;;;;;;2.60;1.70;;;;;;;17.74;41.25;98519.67;106065;1251;71737;-73
2023/03/27 10:45:19;;;;;;;6.70;4.20;;;;;;;17.23;42.07;98509.67;106016;1254;61214;-76
2023/03/27 10:47:48;;;;;;;5.20;2.60;;;;;;;16.80;43.01;98523.15;105905;1259;61369;-74
2023/03/27 10:50:20;;;;;;;3.30;2.80;;;;;;;16.44;43.74;98516.77;106183;1258;72190;-75
2023/03/27 10:53:05;;;;;;;3.80;2.80;;;;;;;16.06;44.09;98510.83;106137;1257;69862;-73
2023/03/27 10:56:04;;;;;;;2.70;2.30;;;;;;;15.71;44.77;98515.93;106051;1256;71722;-74
2023/03/27 10:58:34;;;;;;;3.30;2.40;;;;;;;15.41;44.95;98510.27;106064;1255;61472;-73
2023/03/27 11:01:16;;;;;;;5.00;1.90;;;;;;;15.35;45.01;98511.80;105928;1259;61212;-76
2023/03/27 11:04:15;;;;;;;4.90;2.30;;;;;;;15.79;45.02;98492.41;105965;1253;73726;-73
2023/03/27 11:06:48;;;;;;;4.10;2.50;;;;;;;16.37;44.57;98493.26;105941;1254;70503;-75
2023/03/27 11:09:22;;;;;;;2.70;2.30;;;;;;;16.66;43.96;98490.80;106051;1258;74101;-74
2023/03/27 11:12:06;;;;;;;3.80;2.30;;;;;;;16.70;43.67;98493.02;105963;1251;62405;-75
2023/03/27 11:14:52;;;;;;;1.90;1.70;;;;;;;16.55;43.19;98493.79;105887;1267;61607;-71
2023/03/27 11:17:26;;;;;;;4.20;2.60;;;;;;;16.25;43.38;98493.98;105756;1254;75044;-74
2023/03/27 11:20:20;;;;;;;4.40;2.60;;;;;;;15.95;44.40;98486.74;105924;1256;70653;-74
2023/03/27 11:23:31;;;;;;;4.70;2.70;;;;;;;15.84;44.83;98483.20;105912;1257;72011;-73
2023/03/27 11:26:14;;;;;;;4.80;3.00;;;;;;;16.16;44.35;98485.79;106044;1254;60543;-72
2023/03/27 11:28:45;;;;;;;4.40;2.40;;;;;;;16.46;43.75;98476.98;105801;1259;60415;-72
2023/03/27 11:31:37;;;;;;;4.50;1.80;;;;;;;16.88;43.02;98474.96;105792;1260;73383;-72
2023/03/27 11:34:14;;;;;;;3.30;2.20;;;;;;;17.35;41.07;98470.13;106005;1256;68789;-75
2023/03/27 11:37:03;;;;;;;5.10;2.50;;;;;;;18.02;40.69;98476.21;105885;1255;74200;-73
2023/03/27 11:39:47;;;;;;;2.90;2.20;;;;;;;18.57;40.53;98470.95;105815;1257;60623;-74
2023/03/27 11:42:19;;;;;;;2.60;2.40;;;;;;;18.89;39.52;98471.27;105868;1259;61141;-74
2023/03/27 11:44:47;;;;;;;3.30;2.50;;;;;;;18.81;39.33;98467.14;105906;1258;72782;-72
2023/03/27 11:48:27;;;;;;;4.40;3.30;;;;;;;18.43;39.59;98469.23;105920;1256;72158;-74
2023/03/27 11:51:11;;;;;;;4.30;3.10;;;;;;;17.73;40.17;98459.55;105649;1257;73988;-74
2023/03/27 11:54:24;;;;;;;6.10;2.40;;;;;;;17.25;40.74;98465.55;106022;1257;61599;-73
2023/03/27 11:57:00;;;;;;;4.70;3.10;;;;;;;16.70;41.31;98473.55;106091;1252;61194;-73
2023/03/27 12:00:10;;;;;;;4.00;2.90;;;;;;;16.29;42.61;98475.89;106045;1257;73670;-72
2023/03/27 12:03:01;;;;;;;5.00;2.70;;;;;;;15.79;43.06;98475.81;106095;1256;71601;-73
2023/03/27 12:06:02;;;;;;;3.00;2.20;;;;;;;15.40;44.05;98470.97;106035;1257;73553;-73
2023/03/27 12:08:56;;;;;;;4.70;2.70;;;;;;;15.13;44.55;98465.05;105958;1257;61137;-74
2023/03/27 12:11:23;;;;;;;3.60;2.90;;;;;;;14.98;44.68;98464.39;105916;1254;60411;-75
2023/03/27 12:13:59;;;;;;;3.70;2.10;;;;;;;14.88;44.90;98466.23;105663;1261;74861;-74
2023/03/27 12:16:55;;;;;;;6.10;2.50;;;;;;;14.78;45.43;98463.04;105939;1256;71393;-72
2023/03/27 12:20:04;;;;;;;4.90;3.00;;;;;;;14.72;45.67;98456.08;105923;1258;70966;-74
2023/03/27 12:22:53;;;;;;;7.00;4.20;;;;;;;14.70;45.85;98455.70;105823;1252;61743;-73
2023/03/27 12:26:22;;;;;;;7.30;4.10;;;;;;;14.79;45.81;98458.98;106072;1256;60479;-73